Time;durP1;ratioP1;P1;durP2;ratioP2;P2;SDS_P1;SDS_P2;PMS_P1;PMS_P2;Temp;Humidity;BMP_temperature;BMP_pressure;BME280_temperature;BME280_humidity;BME280_pressure;Samples;Min_cycle;Max_cycle;Signal;HPM_P1;HPM_P2
2022/09/27 00:01:07;;;;;;;10.00;7.50;;;;;;;17.53;60.17;98382.94;4496410;31;33807;-63
2022/09/27 00:03:35;;;;;;;7.80;5.47;;;;;;;17.48;60.45;98377.25;4491069;31;33531;-65
2022/09/27 00:06:07;;;;;;;10.05;6.97;;;;;;;17.53;60.36;98374.81;4493664;31;34961;-63
2022/09/27 00:08:36;;;;;;;11.52;8.10;;;;;;;17.56;60.31;98369.03;4496222;31;34099;-62
2022/09/27 00:11:06;;;;;;;16.15;7.57;;;;;;;17.51;60.62;98363.34;4489181;31;34925;-62
2022/09/27 00:13:33;;;;;;;11.95;7.37;;;;;;;17.55;60.50;98369.19;4494949;31;31791;-62
2022/09/27 00:16:05;;;;;;;11.20;6.45;;;;;;;17.62;60.46;98367.38;4497666;31;33684;-62
2022/09/27 00:18:33;;;;;;;10.27;5.93;;;;;;;17.65;60.12;98362.41;4488127;31;33809;-62
2022/09/27 00:21:10;;;;;;;9.07;7.00;;;;;;;17.67;60.05;98362.25;4492265;31;33787;-62
2022/09/27 00:23:38;;;;;;;10.55;6.65;;;;;;;17.64;59.85;98366.16;4491668;31;33229;-62
2022/09/27 00:26:07;;;;;;;11.73;6.80;;;;;;;17.65;59.79;98356.19;4496616;31;32958;-62
2022/09/27 00:28:35;;;;;;;9.75;7.05;;;;;;;17.60;59.78;98354.06;4487949;31;35085;-62
2022/09/27 00:31:03;;;;;;;8.95;6.18;;;;;;;17.57;59.63;98350.91;4494182;31;32141;-62
2022/09/27 00:33:31;;;;;;;8.52;5.75;;;;;;;17.68;59.05;98355.78;4490552;31;34265;-62
2022/09/27 00:36:08;;;;;;;9.15;7.32;;;;;;;17.58;59.23;98358.00;4487447;31;34629;-63
2022/09/27 00:38:36;;;;;;;8.75;5.57;;;;;;;17.56;59.09;98358.19;4494110;31;36818;-62
2022/09/27 00:41:04;;;;;;;9.45;6.32;;;;;;;17.45;59.58;98347.87;4498286;31;33797;-61
2022/09/27 00:43:47;;;;;;;11.43;7.50;;;;;;;17.56;59.25;98341.09;4498513;31;34290;-61
2022/09/27 00:46:24;;;;;;;10.63;7.55;;;;;;;17.50;59.38;98337.31;4496016;31;33904;-61
2022/09/27 00:49:01;;;;;;;10.32;7.85;;;;;;;17.46;59.36;98336.88;4485053;31;33845;-62
2022/09/27 00:51:29;;;;;;;8.32;5.53;;;;;;;17.43;59.50;98334.56;4499996;31;34659;-62
2022/09/27 00:53:58;;;;;;;9.02;6.97;;;;;;;17.11;60.33;98332.31;4498049;31;33528;-61
2022/09/27 00:56:28;;;;;;;12.07;7.35;;;;;;;17.17;60.12;98331.56;4489917;31;33620;-61
2022/09/27 00:59:01;;;;;;;12.90;7.62;;;;;;;17.27;59.96;98336.66;4494223;31;34047;-62
2022/09/27 01:01:29;;;;;;;9.90;6.50;;;;;;;17.16;60.36;98336.12;4483216;32;34123;-62
2022/09/27 01:04:05;;;;;;;17.30;6.68;;;;;;;17.23;60.17;98326.22;4487467;31;33283;-62
2022/09/27 01:06:33;;;;;;;8.40;6.72;;;;;;;17.22;60.35;98329.13;4491950;31;33911;-61
2022/09/27 01:09:04;;;;;;;12.82;9.65;;;;;;;17.10;60.64;98331.47;4493228;31;33447;-61
2022/09/27 01:11:45;;;;;;;12.52;8.45;;;;;;;17.12;60.70;98326.72;4484818;31;35060;-61
2022/09/27 01:14:31;;;;;;;10.70;8.30;;;;;;;17.09;61.08;98331.69;4485859;31;31835;-64
2022/09/27 01:17:08;;;;;;;;;;;;;;;17.20;60.94;98326.59;4497001;31;33839;-63
2022/09/27 01:20:13;;;;;;;7.57;5.50;;;;;;;17.30;60.66;98322.75;4496937;31;34298;-63
2022/09/27 01:23:04;;;;;;;9.85;5.75;;;;;;;17.34;60.34;98322.19;4491733;31;33929;-63
2022/09/27 01:26:07;;;;;;;11.55;5.82;;;;;;;17.32;60.36;98318.81;4478999;31;33354;-63
2022/09/27 01:28:40;;;;;;;10.75;6.57;;;;;;;17.21;60.95;98311.25;4487653;31;33512;-64
2022/09/27 01:31:20;;;;;;;10.68;7.80;;;;;;;17.24;60.87;98305.44;4497190;31;33706;-64
2022/09/27 01:34:29;;;;;;;10.50;7.90;;;;;;;17.07;61.20;98302.13;4489181;31;33615;-63
2022/09/27 01:37:12;;;;;;;11.12;7.82;;;;;;;17.29;60.62;98297.56;4441688;32;33430;-64
2022/09/27 01:39:48;;;;;;;10.07;8.05;;;;;;;17.31;60.40;98297.41;4430337;32;33882;-64
2022/09/27 01:42:31;;;;;;;11.05;7.53;;;;;;;17.17;60.64;98288.28;4477683;31;33720;-64
2022/09/27 01:45:05;;;;;;;10.27;7.45;;;;;;;17.27;60.38;98288.84;4495763;31;32271;-63
2022/09/27 01:47:39;;;;;;;11.15;7.40;;;;;;;17.25;60.24;98284.66;4488798;31;34176;-63
2022/09/27 01:50:21;;;;;;;10.63;8.13;;;;;;;17.36;59.71;98265.19;4479944;31;34984;-64
2022/09/27 01:52:54;;;;;;;9.40;5.70;;;;;;;17.34;59.69;98260.00;4484685;31;32700;-63
2022/09/27 01:55:23;;;;;;;8.82;7.05;;;;;;;17.34;59.47;98260.00;4492518;31;34959;-63
2022/09/27 01:57:59;;;;;;;11.65;7.32;;;;;;;17.38;59.05;98258.56;4493232;31;32408;-63
2022/09/27 02:00:27;;;;;;;9.82;6.90;;;;;;;17.32;59.13;98262.03;4492892;31;33751;-63
2022/09/27 02:03:08;;;;;;;11.82;7.93;;;;;;;17.22;59.16;98256.13;4494981;31;35222;-63
2022/09/27 02:05:51;;;;;;;10.07;7.12;;;;;;;17.16;59.18;98252.31;4487541;31;32235;-63
2022/09/27 02:08:42;;;;;;;8.57;6.87;;;;;;;17.23;58.73;98250.50;4484654;31;33495;-63
2022/09/27 02:11:12;;;;;;;8.98;5.90;;;;;;;17.25;58.37;98258.44;4485933;31;33621;-63
2022/09/27 02:14:04;;;;;;;7.80;5.87;;;;;;;17.20;58.25;98255.47;4493399;31;34003;-63
2022/09/27 02:16:58;;;;;;;11.02;7.00;;;;;;;17.18;58.24;98254.84;4483214;32;33696;-63
2022/09/27 02:19:32;;;;;;;10.38;8.02;;;;;;;17.11;58.46;98257.47;4490178;31;32164;-65
2022/09/27 02:22:14;;;;;;;9.45;7.10;;;;;;;17.07;58.47;98261.59;4495175;31;33918;-63
2022/09/27 02:24:51;;;;;;;8.75;6.15;;;;;;;17.04;58.42;98261.13;4491580;31;34925;-63
2022/09/27 02:27:28;;;;;;;11.15;7.93;;;;;;;16.99;58.33;98259.84;4482168;31;34395;-63
2022/09/27 02:30:06;;;;;;;7.70;5.32;;;;;;;16.91;58.48;98262.66;4491655;31;33498;-65
2022/09/27 02:32:35;;;;;;;10.20;8.13;;;;;;;16.96;58.23;98251.28;4481199;32;33650;-64
2022/09/27 02:35:24;;;;;;;12.40;7.97;;;;;;;16.79;58.62;98241.72;4483762;31;35254;-63
2022/09/27 02:37:52;;;;;;;9.60;7.18;;;;;;;16.80;58.38;98244.25;4487948;31;34853;-63
2022/09/27 02:40:20;;;;;;;9.57;7.40;;;;;;;16.62;58.57;98243.81;4491921;31;33015;-63
2022/09/27 02:42:48;;;;;;;10.48;6.35;;;;;;;16.73;58.24;98243.31;4496785;31;34021;-64
2022/09/27 02:45:17;;;;;;;9.48;7.07;;;;;;;16.69;58.21;98242.88;4489567;31;33751;-62
2022/09/27 02:47:55;;;;;;;11.70;6.85;;;;;;;16.70;58.11;98231.03;4493473;31;34854;-62
2022/09/27 02:50:29;;;;;;;11.52;5.80;;;;;;;16.75;58.09;98236.72;4491755;31;32626;-62
2022/09/27 02:53:10;;;;;;;9.68;7.00;;;;;;;16.72;58.03;98244.34;4496258;31;33853;-62
2022/09/27 02:55:51;;;;;;;13.90;6.65;;;;;;;16.71;57.89;98232.69;4485067;31;33566;-62
2022/09/27 02:58:26;;;;;;;10.70;7.28;;;;;;;16.72;57.86;98226.25;4492740;31;32175;-63
2022/09/27 03:01:26;;;;;;;13.13;8.50;;;;;;;16.71;57.81;98231.84;4487941;31;33615;-63
2022/09/27 03:04:05;;;;;;;12.02;9.38;;;;;;;16.59;58.01;98228.81;4490686;31;34940;-62
2022/09/27 03:06:33;;;;;;;11.57;6.80;;;;;;;16.45;57.86;98227.00;4493806;31;34198;-63
2022/09/27 03:09:01;;;;;;;13.65;9.55;;;;;;;16.44;57.89;98222.63;4497268;31;33893;-63
2022/09/27 03:11:29;;;;;;;10.02;7.20;;;;;;;16.24;58.32;98227.75;4495771;31;33567;-62
2022/09/27 03:13:56;;;;;;;10.63;7.55;;;;;;;16.38;57.82;98218.81;4495819;31;33565;-63
2022/09/27 03:16:36;;;;;;;15.02;9.13;;;;;;;16.48;57.60;98219.34;4495909;31;34115;-62
2022/09/27 03:19:05;;;;;;;10.05;7.35;;;;;;;16.44;57.86;98226.16;4484670;31;33645;-62
2022/09/27 03:21:38;;;;;;;10.82;6.53;;;;;;;16.41;58.07;98214.91;4496074;31;34536;-62
2022/09/27 03:24:05;;;;;;;10.43;6.70;;;;;;;16.31;58.14;98217.91;4487163;31;33810;-62
2022/09/27 03:26:33;;;;;;;10.27;7.30;;;;;;;16.24;58.71;98216.94;4493897;31;34062;-62
2022/09/27 03:29:00;;;;;;;16.37;10.88;;;;;;;16.22;59.24;98229.81;4495341;31;33595;-62
2022/09/27 03:31:29;;;;;;;12.80;8.07;;;;;;;16.22;59.37;98219.84;4495011;31;34694;-62
2022/09/27 03:33:59;;;;;;;18.87;13.55;;;;;;;16.27;59.73;98219.28;4493677;31;32865;-63
2022/09/27 03:36:27;;;;;;;17.50;12.80;;;;;;;16.23;60.13;98215.28;4494524;31;33900;-63
2022/09/27 03:38:55;;;;;;;19.90;11.32;;;;;;;16.14;60.63;98211.00;4491563;31;33666;-61
2022/09/27 03:41:23;;;;;;;17.30;10.20;;;;;;;16.30;60.28;98216.19;4490263;31;34188;-62
2022/09/27 03:43:51;;;;;;;20.08;14.60;;;;;;;16.33;60.21;98215.00;4495057;31;32724;-62
2022/09/27 03:46:19;;;;;;;24.90;14.38;;;;;;;16.34;60.40;98214.81;4495099;31;33715;-62
2022/09/27 03:48:47;;;;;;;15.55;8.50;;;;;;;16.18;61.18;98207.75;4481406;31;33875;-62
2022/09/27 03:51:14;;;;;;;17.67;7.82;;;;;;;16.36;61.02;98209.22;4497188;31;33244;-62
2022/09/27 03:53:43;;;;;;;13.23;8.43;;;;;;;16.37;61.35;98203.66;4496667;31;34667;-63
2022/09/27 03:56:10;;;;;;;15.55;9.38;;;;;;;16.46;60.87;98202.47;4495908;31;33882;-62
2022/09/27 03:58:38;;;;;;;18.52;12.15;;;;;;;16.42;60.65;98209.28;4494925;31;33571;-62
2022/09/27 04:01:06;;;;;;;14.45;11.52;;;;;;;16.39;60.72;98206.97;4494647;31;33457;-62
2022/09/27 04:03:35;;;;;;;14.50;10.57;;;;;;;16.43;60.53;98205.56;4495247;31;31801;-62
2022/09/27 04:06:07;;;;;;;14.25;11.38;;;;;;;16.44;60.60;98206.41;4498373;31;32855;-62
2022/09/27 04:08:35;;;;;;;12.07;9.05;;;;;;;16.45;60.96;98208.09;4494426;31;32685;-63
2022/09/27 04:11:04;;;;;;;15.75;11.07;;;;;;;16.57;60.48;98206.56;4492749;31;33205;-62
2022/09/27 04:13:32;;;;;;;11.57;7.47;;;;;;;16.33;61.63;98215.81;4493666;31;32697;-62
2022/09/27 04:16:01;;;;;;;17.15;13.07;;;;;;;16.27;62.09;98206.59;4491489;31;35443;-62
2022/09/27 04:18:30;;;;;;;19.05;13.55;;;;;;;16.48;61.70;98205.00;4496583;31;33581;-62
2022/09/27 04:20:59;;;;;;;17.10;12.65;;;;;;;16.65;61.18;98205.59;4489890;31;33146;-63
2022/09/27 04:23:27;;;;;;;20.90;12.27;;;;;;;16.67;61.15;98207.09;4494410;31;34922;-63
2022/09/27 04:25:56;;;;;;;21.65;11.75;;;;;;;16.77;61.12;98196.00;4490607;31;35241;-63
2022/09/27 04:28:28;;;;;;;17.87;13.25;;;;;;;16.80;61.20;98195.63;4494584;31;32800;-62
2022/09/27 04:30:56;;;;;;;17.50;12.80;;;;;;;16.68;61.73;98186.31;4494671;31;33477;-63
2022/09/27 04:33:26;;;;;;;18.65;13.55;;;;;;;16.65;62.17;98189.41;4491482;31;33884;-63
2022/09/27 04:38:42;;;;;;;16.87;13.45;;;;;;;16.70;62.21;98177.00;4492606;31;33511;-63
2022/09/27 04:41:10;;;;;;;17.00;11.05;;;;;;;16.77;62.21;98177.09;4495575;31;32425;-63
2022/09/27 04:43:38;;;;;;;19.37;11.70;;;;;;;16.84;62.07;98186.09;4495744;31;33927;-64
2022/09/27 04:46:05;;;;;;;23.20;15.07;;;;;;;16.87;62.01;98180.31;4492442;31;33612;-64
2022/09/27 04:48:33;;;;;;;22.02;10.95;;;;;;;16.89;61.51;98172.03;4491930;31;33588;-63
2022/09/27 04:51:01;;;;;;;32.28;16.52;;;;;;;16.72;62.46;98176.78;4495795;31;34716;-64
2022/09/27 04:53:29;;;;;;;14.80;10.75;;;;;;;16.83;62.11;98180.91;4495659;31;34864;-63
2022/09/27 04:55:58;;;;;;;26.83;13.75;;;;;;;16.83;62.03;98181.72;4496289;31;33965;-64
2022/09/27 04:58:25;;;;;;;22.05;14.05;;;;;;;16.45;63.62;98173.81;4489019;31;33901;-64
2022/09/27 05:00:54;;;;;;;16.37;9.90;;;;;;;16.69;62.62;98175.34;4490260;31;34527;-64
2022/09/27 05:03:24;;;;;;;23.58;14.23;;;;;;;16.60;62.93;98167.53;4497271;31;33992;-63
2022/09/27 05:05:52;;;;;;;19.85;12.82;;;;;;;16.61;63.12;98166.50;4494486;31;34765;-63
2022/09/27 05:08:20;;;;;;;19.15;15.05;;;;;;;16.65;63.01;98165.09;4487059;31;33756;-63
2022/09/27 05:10:54;;;;;;;14.80;9.38;;;;;;;16.43;63.65;98169.63;4492350;31;33153;-64
2022/09/27 05:13:22;;;;;;;22.90;15.35;;;;;;;16.51;63.78;98167.66;4489896;31;33784;-64
2022/09/27 05:15:51;;;;;;;24.42;16.75;;;;;;;16.66;63.23;98156.81;4496152;31;33946;-64
2022/09/27 05:18:21;;;;;;;21.60;15.23;;;;;;;16.51;64.14;98167.66;4496056;31;34132;-64
2022/09/27 05:20:52;;;;;;;21.45;16.10;;;;;;;15.95;66.22;98156.56;4492604;31;32353;-63
2022/09/27 05:23:20;;;;;;;27.10;14.23;;;;;;;16.51;64.57;98161.41;4487065;31;34701;-65
2022/09/27 05:25:48;;;;;;;26.65;18.52;;;;;;;16.47;64.92;98154.72;4488239;31;35978;-62
2022/09/27 05:28:15;;;;;;;32.10;18.12;;;;;;;16.56;64.62;98141.91;4490832;31;33973;-62
2022/09/27 05:30:43;;;;;;;33.30;16.40;;;;;;;16.59;64.71;98136.13;4493780;31;32339;-62
2022/09/27 05:33:11;;;;;;;28.30;19.60;;;;;;;15.78;67.56;98147.03;4493939;31;32532;-62
2022/09/27 05:35:41;;;;;;;21.08;12.75;;;;;;;16.06;66.59;98139.91;4489417;31;32711;-62
2022/09/27 05:38:12;;;;;;;20.80;11.18;;;;;;;16.16;66.42;98142.31;4492631;31;35278;-61
2022/09/27 05:40:43;;;;;;;26.35;17.02;;;;;;;15.78;67.79;98131.66;4495474;31;32281;-61
2022/09/27 05:43:10;;;;;;;22.77;16.90;;;;;;;15.87;67.83;98127.00;4493142;31;33805;-62
2022/09/27 05:45:38;;;;;;;26.80;18.52;;;;;;;16.01;67.01;98128.84;4493878;31;32668;-62
2022/09/27 05:48:07;;;;;;;30.30;22.75;;;;;;;15.74;68.33;98126.84;4491846;31;34069;-62
2022/09/27 05:50:35;;;;;;;23.20;13.70;;;;;;;15.88;68.08;98136.78;4494303;31;32003;-62
2022/09/27 05:53:03;;;;;;;19.15;12.15;;;;;;;15.97;67.71;98140.22;4495200;31;33332;-62
2022/09/27 05:55:31;;;;;;;25.50;17.30;;;;;;;16.31;67.13;98147.69;4495108;31;33803;-62
2022/09/27 05:58:01;;;;;;;33.05;20.17;;;;;;;16.34;66.75;98135.66;4485796;31;33305;-62
2022/09/27 06:00:30;;;;;;;31.45;22.40;;;;;;;16.25;67.40;98135.78;4497025;31;34653;-62
2022/09/27 06:03:03;;;;;;;25.45;17.85;;;;;;;16.10;68.18;98129.59;4496226;31;33848;-62
2022/09/27 06:05:35;;;;;;;28.40;20.35;;;;;;;16.33;67.40;98132.13;4494006;31;34020;-62
2022/09/27 06:08:09;;;;;;;31.80;21.73;;;;;;;16.43;67.02;98134.53;4481045;31;33032;-62
2022/09/27 06:10:37;;;;;;;32.20;23.45;;;;;;;16.27;67.46;98141.81;4494490;31;33738;-62
2022/09/27 06:13:09;;;;;;;34.10;21.27;;;;;;;16.11;68.14;98131.25;4494480;31;33731;-62
2022/09/27 06:15:39;;;;;;;31.55;22.05;;;;;;;16.04;68.64;98135.72;4491376;31;34042;-61
2022/09/27 06:18:09;;;;;;;22.13;15.35;;;;;;;16.04;68.72;98131.16;4491411;31;33717;-62
2022/09/27 06:20:40;;;;;;;22.30;13.40;;;;;;;16.42;67.74;98143.66;4496797;31;33537;-62
2022/09/27 06:23:19;;;;;;;27.50;19.90;;;;;;;16.16;68.50;98136.94;4498430;31;32422;-62
2022/09/27 06:25:47;;;;;;;39.75;28.35;;;;;;;16.00;69.24;98145.25;4494756;31;34098;-62
2022/09/27 06:28:17;;;;;;;28.87;20.00;;;;;;;15.92;69.55;98139.94;4500042;31;34868;-62
2022/09/27 06:30:46;;;;;;;28.12;18.70;;;;;;;16.17;68.85;98138.59;4497949;31;33186;-62
2022/09/27 06:33:18;;;;;;;36.17;27.90;;;;;;;16.25;68.97;98133.09;4496590;31;33465;-61
2022/09/27 06:35:48;;;;;;;30.92;22.92;;;;;;;16.08;69.83;98137.00;4500343;31;33996;-62
2022/09/27 06:38:17;;;;;;;30.15;21.55;;;;;;;16.45;68.90;98138.72;4498461;31;35009;-62
2022/09/27 06:40:46;;;;;;;41.22;29.48;;;;;;;16.66;68.46;98126.22;4496703;31;34014;-62
2022/09/27 06:43:21;;;;;;;33.78;23.30;;;;;;;16.63;68.31;98127.47;4498020;31;34815;-62
2022/09/27 06:45:49;;;;;;;26.67;18.35;;;;;;;16.23;69.73;98118.94;4499984;31;31720;-62
2022/09/27 06:48:20;;;;;;;33.95;23.48;;;;;;;16.26;69.25;98123.12;4491789;31;34661;-62
2022/09/27 06:50:47;;;;;;;31.48;20.83;;;;;;;15.70;71.82;98121.00;4496823;31;33206;-61
2022/09/27 06:53:16;;;;;;;35.80;24.67;;;;;;;16.03;70.36;98125.97;4499045;31;33895;-62
2022/09/27 06:55:44;;;;;;;29.37;19.77;;;;;;;16.23;69.70;98135.13;4495489;31;33910;-63
2022/09/27 07:01:00;;;;;;;38.50;27.65;;;;;;;16.72;68.67;98147.06;4496026;31;32202;-62
2022/09/27 07:03:34;;;;;;;22.90;15.50;;;;;;;16.74;68.28;98145.84;4500379;31;33604;-62
2022/09/27 07:06:19;;;;;;;33.38;25.75;;;;;;;16.91;68.03;98138.34;4499457;31;33883;-62
2022/09/27 07:08:53;;;;;;;31.70;20.85;;;;;;;16.81;68.09;98145.12;4496442;31;32350;-62
2022/09/27 07:11:22;;;;;;;26.30;19.23;;;;;;;17.03;67.83;98141.37;4499473;31;34459;-62
2022/09/27 07:13:50;;;;;;;34.53;25.50;;;;;;;17.14;67.62;98137.28;4496383;31;34993;-62
2022/09/27 07:16:18;;;;;;;32.72;25.62;;;;;;;17.08;67.55;98130.81;4495297;31;35240;-62
2022/09/27 07:18:47;;;;;;;32.25;24.23;;;;;;;17.09;67.18;98140.59;4495500;31;33843;-62
2022/09/27 07:21:15;;;;;;;29.70;22.33;;;;;;;16.96;67.64;98143.19;4498545;31;33398;-62
2022/09/27 07:23:42;;;;;;;21.20;15.32;;;;;;;16.58;68.73;98142.59;4495967;31;33725;-62
2022/09/27 07:26:11;;;;;;;27.98;23.80;;;;;;;16.87;67.97;98144.34;4493094;31;32583;-62
2022/09/27 07:28:40;;;;;;;29.30;24.98;;;;;;;16.85;67.29;98132.88;4499030;31;32504;-62
2022/09/27 07:31:10;;;;;;;30.55;23.45;;;;;;;16.85;67.25;98132.88;4496445;31;33478;-62
2022/09/27 07:33:38;;;;;;;22.15;16.27;;;;;;;15.96;69.93;98136.69;4499726;31;33589;-62
2022/09/27 07:36:11;;;;;;;22.65;18.17;;;;;;;16.16;69.65;98144.19;4497583;31;33948;-62
2022/09/27 07:38:40;;;;;;;30.80;21.92;;;;;;;16.30;69.16;98146.00;4498078;31;33759;-62
2022/09/27 07:41:09;;;;;;;27.48;18.85;;;;;;;15.74;71.11;98124.97;4496014;31;34084;-62
2022/09/27 07:43:37;;;;;;;28.77;22.48;;;;;;;16.15;69.96;98126.34;4496770;31;35072;-62
2022/09/27 07:46:05;;;;;;;28.50;23.42;;;;;;;15.97;70.80;98121.31;4497085;31;32940;-62
2022/09/27 07:48:33;;;;;;;32.28;23.30;;;;;;;15.80;72.27;98121.53;4494092;31;34184;-62
2022/09/27 07:51:00;;;;;;;31.17;23.75;;;;;;;16.21;70.87;98130.94;4490601;31;31893;-62
2022/09/27 07:53:33;;;;;;;24.65;18.73;;;;;;;16.60;69.64;98140.53;4498245;31;35051;-62
2022/09/27 07:56:02;;;;;;;35.25;25.02;;;;;;;16.75;69.15;98134.03;4498154;31;32647;-62
2022/09/27 07:58:31;;;;;;;27.33;21.17;;;;;;;16.65;69.43;98135.38;4496165;31;33945;-62
2022/09/27 08:00:59;;;;;;;27.87;22.48;;;;;;;16.69;68.98;98129.41;4489166;31;32160;-62
2022/09/27 08:03:27;;;;;;;30.98;24.87;;;;;;;16.57;69.39;98124.72;4493235;31;33736;-62
2022/09/27 08:05:55;;;;;;;30.30;23.60;;;;;;;16.48;69.79;98118.59;4498914;31;33807;-62
2022/09/27 08:08:23;;;;;;;21.05;14.02;;;;;;;16.49;69.91;98117.56;4492004;31;33731;-62
2022/09/27 08:10:52;;;;;;;22.83;16.25;;;;;;;16.33;70.78;98124.03;4493630;31;32389;-62
2022/09/27 08:13:20;;;;;;;30.05;24.87;;;;;;;16.59;70.02;98130.75;4498012;31;33505;-62
2022/09/27 08:15:48;;;;;;;27.33;23.20;;;;;;;16.68;69.80;98141.22;4496768;31;32710;-62
2022/09/27 08:18:16;;;;;;;22.55;17.58;;;;;;;16.92;68.98;98136.50;4495001;31;32795;-62
2022/09/27 08:20:45;;;;;;;19.08;12.95;;;;;;;17.12;68.28;98139.38;4491249;31;34540;-62
2022/09/27 08:23:15;;;;;;;22.02;17.35;;;;;;;17.17;67.80;98143.16;4498319;31;33362;-62
2022/09/27 08:25:43;;;;;;;29.58;22.92;;;;;;;17.28;67.64;98140.97;4494461;31;33972;-62
2022/09/27 08:28:10;;;;;;;26.40;20.80;;;;;;;17.23;67.77;98136.94;4491968;31;33461;-62
2022/09/27 08:30:38;;;;;;;25.00;21.33;;;;;;;16.85;68.79;98125.63;4491888;31;34272;-62
2022/09/27 08:33:07;;;;;;;20.83;13.18;;;;;;;16.84;68.70;98121.25;4492071;31;34836;-67
2022/09/27 08:35:35;;;;;;;24.02;18.23;;;;;;;16.85;69.22;98120.22;4493632;31;32816;-62
2022/09/27 08:38:04;;;;;;;23.92;19.00;;;;;;;16.90;68.98;98125.03;4498037;31;33838;-63
2022/09/27 08:40:53;;;;;;;26.98;18.95;;;;;;;16.86;68.74;98124.59;4496169;31;32406;-63
2022/09/27 08:43:38;;;;;;;26.75;18.92;;;;;;;16.90;68.48;98130.44;4488686;31;34555;-64
2022/09/27 08:46:09;;;;;;;;;;;;;;;16.93;68.47;98124.66;4493561;31;34873;-63
2022/09/27 08:48:38;;;;;;;23.27;17.23;;;;;;;17.23;67.31;98128.00;4487281;31;33621;-67
2022/09/27 08:51:10;;;;;;;20.15;15.68;;;;;;;16.97;67.91;98129.47;4494711;31;33514;-64
2022/09/27 08:53:52;;;;;;;29.05;18.95;;;;;;;17.25;66.95;98120.56;4492634;31;33812;-64
2022/09/27 08:56:20;;;;;;;21.42;14.93;;;;;;;17.08;67.21;98122.72;4492211;31;35243;-63
2022/09/27 08:59:01;;;;;;;29.20;23.33;;;;;;;16.96;67.53;98110.75;4485150;31;34787;-63
2022/09/27 09:01:29;;;;;;;37.60;23.83;;;;;;;16.88;68.07;98119.00;4491510;31;34526;-64
2022/09/27 09:04:00;;;;;;;27.92;22.15;;;;;;;16.82;68.32;98112.53;4485958;31;33461;-64
2022/09/27 09:06:38;;;;;;;29.12;23.17;;;;;;;16.77;68.19;98110.37;4493457;31;33170;-63
2022/09/27 09:09:14;;;;;;;30.17;24.52;;;;;;;17.00;67.84;98118.28;4498507;31;33802;-63
2022/09/27 09:14:52;;;;;;;24.17;17.80;;;;;;;16.65;69.18;98113.75;4488044;31;33682;-63
2022/09/27 09:17:50;;;;;;;26.52;19.00;;;;;;;16.72;68.71;98095.75;4493733;31;33973;-63
2022/09/27 09:20:31;;;;;;;28.12;20.05;;;;;;;16.26;70.79;98098.81;4494968;31;33526;-62
2022/09/27 09:23:05;;;;;;;20.65;13.25;;;;;;;16.33;71.02;98096.19;4482844;31;33745;-63
2022/09/27 09:25:41;;;;;;;26.17;18.40;;;;;;;16.75;69.91;98095.37;4497390;31;35058;-69
2022/09/27 09:28:25;;;;;;;27.62;19.23;;;;;;;16.80;70.14;98094.81;4496786;31;33946;-65
2022/09/27 09:31:14;;;;;;;29.15;23.30;;;;;;;17.15;69.42;98090.31;4493958;31;33690;-65
2022/09/27 09:33:50;;;;;;;27.25;19.75;;;;;;;16.79;70.76;98091.28;4486253;31;34810;-64
2022/09/27 09:36:43;;;;;;;25.27;19.55;;;;;;;16.74;70.55;98088.28;4488460;31;34223;-64
2022/09/27 09:39:16;;;;;;;23.05;19.67;;;;;;;17.02;69.68;98087.53;4488230;31;35143;-64
2022/09/27 09:42:05;;;;;;;18.12;11.40;;;;;;;16.93;70.13;98084.97;4489975;31;33855;-64
2022/09/27 09:44:51;;;;;;;20.80;15.15;;;;;;;17.17;69.23;98082.84;4497951;31;32511;-64
2022/09/27 09:47:47;;;;;;;25.00;18.25;;;;;;;17.07;69.94;98072.37;4494109;31;33641;-63
2022/09/27 09:50:26;;;;;;;27.85;21.60;;;;;;;16.98;70.11;98079.81;4498273;31;34016;-63
2022/09/27 09:53:03;;;;;;;25.80;15.98;;;;;;;16.96;70.51;98076.47;4499359;31;32675;-63
2022/09/27 09:55:34;;;;;;;42.70;21.67;;;;;;;16.79;71.62;98072.37;4497505;31;33431;-63
2022/09/27 09:58:20;;;;;;;25.37;18.48;;;;;;;17.07;70.46;98079.66;4487883;31;34810;-63
2022/09/27 10:00:52;;;;;;;23.60;18.62;;;;;;;16.89;71.10;98074.75;4492897;31;32146;-63
2022/09/27 10:03:21;;;;;;;24.73;17.00;;;;;;;17.33;69.62;98074.41;4483461;31;33196;-63
2022/09/27 10:05:49;;;;;;;26.05;17.62;;;;;;;17.14;70.09;98072.41;4500583;31;33509;-63
2022/09/27 10:08:20;;;;;;;25.77;19.15;;;;;;;17.37;69.28;98062.19;4499800;31;34935;-63
2022/09/27 10:10:48;;;;;;;30.02;20.98;;;;;;;17.34;69.13;98067.16;4496138;31;33761;-63
2022/09/27 10:13:20;;;;;;;27.70;21.23;;;;;;;17.38;69.28;98054.91;4493858;31;33895;-62
2022/09/27 10:16:04;;;;;;;24.73;20.90;;;;;;;16.81;71.58;98062.19;4498470;31;31942;-62
2022/09/27 10:18:34;;;;;;;24.95;20.62;;;;;;;17.39;69.59;98052.00;4491100;31;34978;-62
2022/09/27 10:21:22;;;;;;;24.58;20.52;;;;;;;17.43;69.61;98053.28;4493749;31;32584;-62
2022/09/27 10:24:10;;;;;;;23.30;15.68;;;;;;;17.14;70.79;98051.66;4486614;31;34038;-63
2022/09/27 10:26:49;;;;;;;27.90;21.70;;;;;;;17.74;68.68;98041.13;4499379;31;34773;-63
2022/09/27 10:29:30;;;;;;;26.77;20.88;;;;;;;17.17;71.04;98045.00;4500491;31;32717;-62
2022/09/27 10:32:18;;;;;;;27.02;21.30;;;;;;;17.60;69.44;98042.97;4495598;31;32277;-62
2022/09/27 10:34:47;;;;;;;24.02;16.55;;;;;;;17.57;69.74;98043.34;4495858;31;33996;-63
2022/09/27 10:37:17;;;;;;;29.92;21.95;;;;;;;17.88;68.50;98042.91;4484876;31;32077;-63
2022/09/27 10:39:49;;;;;;;26.48;19.83;;;;;;;17.73;69.22;98034.06;4486105;31;35059;-62
2022/09/27 10:42:34;;;;;;;22.40;17.30;;;;;;;18.09;67.87;98030.25;4484883;31;34980;-64
2022/09/27 10:45:29;;;;;;;23.73;18.20;;;;;;;18.00;68.32;98034.19;4487462;31;33662;-63
2022/09/27 10:47:59;;;;;;;24.48;20.62;;;;;;;18.20;67.76;98035.06;4489418;31;34235;-63
2022/09/27 10:50:30;;;;;;;25.05;20.73;;;;;;;17.84;68.89;98035.37;4491124;31;34726;-63
2022/09/27 10:53:19;;;;;;;23.05;18.75;;;;;;;18.28;67.29;98024.03;4495754;31;34069;-64
2022/09/27 10:55:49;;;;;;;23.95;19.48;;;;;;;17.85;68.93;98021.66;4486938;31;34792;-63
2022/09/27 10:58:19;;;;;;;24.30;18.58;;;;;;;18.05;68.17;98020.88;4492317;31;33664;-63
2022/09/27 11:01:14;;;;;;;23.60;18.60;;;;;;;18.16;68.66;98022.97;4493444;31;33085;-64
2022/09/27 11:03:54;;;;;;;23.65;18.42;;;;;;;18.29;67.88;98014.03;4497762;31;33716;-64
2022/09/27 11:06:22;;;;;;;23.33;19.30;;;;;;;18.32;68.09;98010.91;4484201;31;34888;-63
2022/09/27 11:08:51;;;;;;;20.15;17.85;;;;;;;18.52;67.35;98005.50;4500077;31;32327;-63
2022/09/27 11:11:28;;;;;;;20.10;16.30;;;;;;;18.27;68.46;98006.13;4497187;31;34967;-63
2022/09/27 11:14:03;;;;;;;20.88;16.00;;;;;;;18.56;67.38;98002.19;4497408;31;33823;-63
2022/09/27 11:16:44;;;;;;;19.75;15.82;;;;;;;18.77;66.64;97998.47;4491328;31;34161;-63
2022/09/27 11:19:25;;;;;;;22.23;16.85;;;;;;;18.55;67.59;97994.25;4488932;31;32417;-64
2022/09/27 11:22:00;;;;;;;21.08;15.85;;;;;;;18.24;68.63;98000.31;4483602;31;33499;-63
2022/09/27 11:24:31;;;;;;;17.92;14.60;;;;;;;18.39;68.58;97987.38;4495826;31;32781;-64
2022/09/27 11:27:21;;;;;;;18.17;15.38;;;;;;;18.21;69.38;97988.00;4487413;31;34057;-65
2022/09/27 11:30:08;;;;;;;18.80;15.98;;;;;;;17.91;70.04;97977.53;4491438;31;32092;-64
2022/09/27 11:32:53;;;;;;;17.58;13.95;;;;;;;17.98;69.45;97974.00;4492865;31;34690;-65
2022/09/27 11:35:25;;;;;;;16.50;14.15;;;;;;;18.42;68.33;97978.84;4490957;31;32769;-64
2022/09/27 11:38:16;;;;;;;17.62;13.43;;;;;;;18.77;66.83;97979.47;4492404;31;34197;-64
2022/09/27 11:41:15;;;;;;;16.55;13.95;;;;;;;18.73;66.76;97970.12;4489768;31;31851;-64
2022/09/27 11:44:01;;;;;;;16.17;13.45;;;;;;;18.73;66.62;97969.28;4483334;31;35529;-63
2022/09/27 11:46:31;;;;;;;16.87;13.40;;;;;;;18.64;66.60;97960.50;4481685;31;33184;-63
2022/09/27 11:49:22;;;;;;;16.87;13.15;;;;;;;18.53;66.96;97955.72;4484309;31;32222;-63
2022/09/27 11:52:23;;;;;;;16.80;13.93;;;;;;;18.72;66.35;97956.75;4491132;31;33288;-63
2022/09/27 11:55:12;;;;;;;17.52;13.65;;;;;;;19.09;65.27;97950.66;4490568;31;35004;-64
2022/09/27 11:57:44;;;;;;;18.10;13.80;;;;;;;19.07;65.75;97949.22;4489003;31;34947;-64
2022/09/27 12:00:17;;;;;;;18.87;15.00;;;;;;;19.24;64.96;97946.88;4483627;31;32126;-63